Time;durP1;ratioP1;P1;durP2;ratioP2;P2;SDS_P1;SDS_P2;PMS_P1;PMS_P2;Temp;Humidity;BMP_temperature;BMP_pressure;BME280_temperature;BME280_humidity;BME280_pressure;Samples;Min_cycle;Max_cycle;Signal;HPM_P1;HPM_P2
2022/08/25 00:01:19;;;;;;;38.22;13.07;;;;;;;19.92;52.73;100213.78;5029481;28;20037;-63
2022/08/25 00:03:46;;;;;;;25.05;13.10;;;;;;;19.93;53.10;100207.28;5029772;28;20049;-62
2022/08/25 00:06:12;;;;;;;25.73;13.52;;;;;;;19.95;52.87;100207.03;5029697;28;20048;-61
2022/08/25 00:08:39;;;;;;;28.17;12.57;;;;;;;19.93;52.88;100210.00;5029724;28;20034;-61
2022/08/25 00:11:07;;;;;;;29.25;13.48;;;;;;;19.86;53.27;100203.34;5029177;28;20045;-61
2022/08/25 00:13:33;;;;;;;29.55;13.00;;;;;;;19.88;53.18;100203.84;5030726;28;20033;-60
2022/08/25 00:15:59;;;;;;;30.42;14.05;;;;;;;19.85;53.39;100209.78;5030980;28;20048;-62
2022/08/25 00:18:25;;;;;;;27.00;13.93;;;;;;;19.83;53.41;100206.56;5029590;28;20107;-62
2022/08/25 00:20:51;;;;;;;35.80;15.32;;;;;;;19.80;53.24;100202.56;5030499;28;20560;-62
2022/08/25 00:23:18;;;;;;;36.63;14.77;;;;;;;19.79;53.65;100203.63;5030956;28;20041;-62
2022/08/25 00:25:44;;;;;;;35.35;15.13;;;;;;;19.78;53.25;100210.09;5030084;28;20095;-61
2022/08/25 00:28:10;;;;;;;35.08;14.52;;;;;;;19.79;53.46;100194.75;5030593;28;20045;-61
2022/08/25 00:30:35;;;;;;;25.60;13.02;;;;;;;19.77;54.08;100200.44;5029663;28;20049;-62
2022/08/25 00:33:02;;;;;;;24.35;12.60;;;;;;;19.79;54.99;100203.63;5030551;28;20068;-62
2022/08/25 00:35:28;;;;;;;27.23;11.82;;;;;;;19.78;54.35;100202.03;5029802;28;20041;-62
2022/08/25 00:37:54;;;;;;;26.77;12.00;;;;;;;19.77;54.63;100199.63;5031021;28;20457;-61
2022/08/25 00:40:20;;;;;;;34.80;11.80;;;;;;;19.76;54.40;100192.63;5034506;28;20076;-61
2022/08/25 00:42:46;;;;;;;27.42;10.65;;;;;;;19.71;54.66;100191.56;5016342;28;20079;-63
2022/08/25 00:45:11;;;;;;;21.50;11.13;;;;;;;19.71;55.62;100202.34;5034269;28;20099;-60
2022/08/25 00:47:39;;;;;;;24.67;10.38;;;;;;;19.68;55.57;100197.50;5034299;28;20045;-63
2022/08/25 00:50:08;;;;;;;21.83;9.90;;;;;;;19.65;55.51;100191.91;5033947;28;20099;-60
2022/08/25 00:52:40;;;;;;;27.83;10.20;;;;;;;19.62;55.33;100203.97;5033661;28;20041;-61
2022/08/25 00:55:26;;;;;;;18.95;10.50;;;;;;;19.58;56.77;100200.22;5032821;28;20107;-61
2022/08/25 00:57:59;;;;;;;22.77;9.70;;;;;;;19.54;55.36;100196.47;5033873;28;20465;-61
2022/08/25 01:00:32;;;;;;;29.63;10.05;;;;;;;19.54;55.96;100195.69;5032474;28;20538;-61
2022/08/25 01:02:58;;;;;;;20.67;10.50;;;;;;;19.51;56.75;100197.84;5032522;28;20090;-61
2022/08/25 01:05:25;;;;;;;21.02;10.02;;;;;;;19.53;57.60;100200.25;5033923;28;20507;-61
2022/08/25 01:07:53;;;;;;;22.05;10.30;;;;;;;19.47;57.96;100195.97;5032060;28;20052;-60
2022/08/25 01:10:20;;;;;;;21.52;9.88;;;;;;;19.41;57.56;100197.06;4996553;28;20077;-59
2022/08/25 01:12:47;;;;;;;25.13;10.40;;;;;;;19.39;58.21;100196.56;5027905;28;20049;-62
2022/08/25 01:15:13;;;;;;;21.63;9.52;;;;;;;19.39;58.58;100194.69;5034066;28;20045;-61
2022/08/25 01:17:54;;;;;;;23.75;10.63;;;;;;;19.32;63.05;100193.34;5033713;28;20041;-62
2022/08/25 01:20:22;;;;;;;23.33;9.70;;;;;;;19.18;63.87;100193.97;5032459;28;20499;-62
2022/08/25 01:22:49;;;;;;;19.23;9.15;;;;;;;19.09;65.10;100198.28;5033606;28;20423;-61
2022/08/25 01:25:21;;;;;;;20.42;9.55;;;;;;;19.05;64.92;100197.22;5015560;28;20057;-62
2022/08/25 01:27:47;;;;;;;19.25;9.57;;;;;;;19.02;65.46;100195.06;5033595;28;20049;-62
2022/08/25 01:30:13;;;;;;;20.55;10.23;;;;;;;18.99;65.67;100196.44;5033797;28;20045;-61
2022/08/25 01:32:39;;;;;;;23.95;9.75;;;;;;;19.00;61.92;100200.75;5033553;28;20069;-61
2022/08/25 01:35:05;;;;;;;24.33;9.50;;;;;;;19.07;61.18;100197.75;5033669;28;20560;-61
2022/08/25 01:37:33;;;;;;;19.80;10.13;;;;;;;19.12;60.17;100197.75;5033290;28;20564;-61
2022/08/25 01:39:59;;;;;;;19.73;10.13;;;;;;;19.21;60.26;100197.97;5031785;28;20077;-61
2022/08/25 01:42:47;;;;;;;21.98;9.50;;;;;;;19.23;61.36;100201.19;5031801;28;20120;-61
2022/08/25 01:45:14;;;;;;;18.27;9.25;;;;;;;19.17;63.83;100191.53;5032078;28;20090;-62
2022/08/25 01:47:40;;;;;;;17.63;10.15;;;;;;;19.04;64.41;100201.78;5032910;28;20052;-62
2022/08/25 01:50:06;;;;;;;15.35;9.25;;;;;;;18.96;65.53;100198.84;5032795;28;20046;-61
2022/08/25 01:52:57;;;;;;;20.25;9.65;;;;;;;18.89;66.48;100201.84;5032586;28;20053;-62
2022/08/25 01:55:23;;;;;;;18.25;10.57;;;;;;;18.85;66.36;100211.50;5031901;28;20522;-61
2022/08/25 01:57:49;;;;;;;22.48;10.40;;;;;;;18.78;66.52;100203.72;5032936;28;20069;-62
2022/08/25 02:00:15;;;;;;;23.50;10.23;;;;;;;18.75;66.37;100200.78;5033257;28;20077;-61
2022/08/25 02:02:45;;;;;;;21.30;9.70;;;;;;;18.73;66.23;100200.22;5013560;28;20128;-61
2022/08/25 02:05:13;;;;;;;20.52;10.07;;;;;;;18.70;66.88;100204.25;5033160;28;20044;-61
2022/08/25 02:07:40;;;;;;;22.38;11.07;;;;;;;18.67;66.92;100206.66;5031336;28;20057;-61
2022/08/25 02:10:06;;;;;;;19.45;10.27;;;;;;;18.65;66.75;100212.34;5033103;28;20042;-61
2022/08/25 02:12:33;;;;;;;19.48;10.75;;;;;;;18.61;66.89;100206.66;5031116;28;20152;-60
2022/08/25 02:15:19;;;;;;;22.55;10.90;;;;;;;18.60;66.77;100206.97;5031985;28;20103;-61
2022/08/25 02:17:45;;;;;;;23.08;10.88;;;;;;;18.60;66.51;100196.22;5031244;28;20053;-61
2022/08/25 02:20:10;;;;;;;22.10;11.48;;;;;;;18.61;66.34;100212.03;5031442;28;20042;-59
2022/08/25 02:22:36;;;;;;;19.80;10.55;;;;;;;18.61;66.35;100205.88;5032633;28;20045;-60
2022/08/25 02:25:03;;;;;;;19.25;10.98;;;;;;;18.57;66.33;100204.81;5032372;28;20037;-60
2022/08/25 02:27:29;;;;;;;20.98;11.18;;;;;;;18.57;66.28;100212.88;5030870;28;20502;-60
2022/08/25 02:29:54;;;;;;;23.60;11.50;;;;;;;18.57;66.88;100210.19;5032733;28;20048;-59
2022/08/25 02:32:20;;;;;;;23.52;10.75;;;;;;;18.57;67.13;100210.19;5032282;28;20057;-60
2022/08/25 02:34:45;;;;;;;27.23;12.48;;;;;;;18.56;67.29;100203.19;5030661;28;20041;-61
2022/08/25 02:37:11;;;;;;;22.45;11.77;;;;;;;18.55;67.45;100212.31;5030876;28;20045;-61
2022/08/25 02:39:37;;;;;;;17.67;11.57;;;;;;;18.54;67.32;100205.34;5031010;28;20128;-60
2022/08/25 02:42:04;;;;;;;20.83;12.68;;;;;;;18.56;67.32;100198.66;5032000;28;20057;-61
2022/08/25 02:44:30;;;;;;;17.17;11.65;;;;;;;18.59;67.48;100198.09;5030882;28;20128;-60
2022/08/25 02:46:56;;;;;;;21.40;11.95;;;;;;;18.62;67.25;100199.44;5029716;28;20132;-61
2022/08/25 02:49:23;;;;;;;23.13;12.35;;;;;;;18.68;66.76;100201.03;5021311;28;20045;-60
2022/08/25 02:51:48;;;;;;;22.27;12.10;;;;;;;18.75;66.54;100192.72;5032181;28;20743;-61
2022/08/25 02:54:14;;;;;;;22.42;12.52;;;;;;;18.83;66.17;100184.94;5030594;28;20037;-61
2022/08/25 02:56:41;;;;;;;23.77;12.13;;;;;;;18.97;66.00;100182.47;5014240;28;20045;-61
2022/08/25 02:59:07;;;;;;;17.00;10.57;;;;;;;19.09;65.85;100192.09;5031968;28;20045;-61
2022/08/25 03:01:33;;;;;;;26.10;12.73;;;;;;;19.15;65.14;100193.69;5032077;28;20041;-61
2022/08/25 03:04:00;;;;;;;20.52;12.85;;;;;;;19.16;64.97;100190.72;5030082;28;20057;-62
2022/08/25 03:06:26;;;;;;;23.27;12.15;;;;;;;19.18;65.40;100191.28;5030302;28;20565;-62
2022/08/25 03:08:53;;;;;;;20.05;12.07;;;;;;;19.43;64.57;100195.72;5030825;28;20096;-61
2022/08/25 03:11:19;;;;;;;24.42;12.25;;;;;;;19.79;63.24;100192.06;5031386;28;20057;-61
2022/08/25 03:13:45;;;;;;;24.98;12.25;;;;;;;20.11;62.26;100196.94;5013852;28;20061;-61
2022/08/25 03:16:11;;;;;;;19.15;11.35;;;;;;;20.38;61.58;100191.06;5030386;28;20128;-61
2022/08/25 03:18:38;;;;;;;24.98;11.68;;;;;;;20.57;60.47;100199.28;5029935;28;20049;-60
2022/08/25 03:21:04;;;;;;;24.85;12.80;;;;;;;20.72;59.72;100201.84;5031682;28;20041;-62
2022/08/25 03:23:30;;;;;;;25.67;11.50;;;;;;;20.82;59.43;100187.44;5031558;28;20045;-61
2022/08/25 03:28:40;;;;;;;24.85;13.43;;;;;;;21.00;58.37;100191.28;5031475;28;20072;-61
2022/08/25 03:31:06;;;;;;;20.20;11.95;;;;;;;21.04;59.18;100200.44;5031489;28;20053;-61
2022/08/25 03:33:32;;;;;;;25.65;13.02;;;;;;;21.17;58.93;100198.91;5031151;28;20135;-61
2022/08/25 03:35:58;;;;;;;22.27;12.80;;;;;;;21.26;58.62;100197.97;5031490;28;20079;-62
2022/08/25 03:38:24;;;;;;;23.77;13.63;;;;;;;21.38;58.16;100186.81;5031609;28;20510;-62
2022/08/25 03:40:51;;;;;;;21.52;13.15;;;;;;;21.55;57.53;100191.72;5030099;28;20107;-62
2022/08/25 03:43:17;;;;;;;23.67;13.07;;;;;;;21.70;57.24;100191.50;5029562;28;20038;-63
2022/08/25 03:45:43;;;;;;;32.63;13.45;;;;;;;21.88;56.41;100191.78;5031329;28;20046;-63
2022/08/25 03:48:09;;;;;;;27.70;15.18;;;;;;;21.97;56.11;100190.84;5030856;28;20045;-63
2022/08/25 03:50:36;;;;;;;23.48;13.57;;;;;;;22.14;55.73;100184.91;5031540;28;20434;-62
2022/08/25 03:53:02;;;;;;;25.42;14.00;;;;;;;22.30;55.24;100190.91;5030979;28;20506;-62
2022/08/25 03:55:28;;;;;;;25.85;14.77;;;;;;;22.48;54.21;100194.63;5031510;28;20035;-62
2022/08/25 03:57:54;;;;;;;25.52;14.02;;;;;;;22.70;53.65;100190.47;5030168;28;20187;-63
2022/08/25 04:00:21;;;;;;;29.48;15.85;;;;;;;22.85;53.79;100192.88;5031404;28;20088;-62
2022/08/25 04:02:47;;;;;;;25.02;14.48;;;;;;;23.00;53.23;100192.63;5031052;28;20069;-63
2022/08/25 04:05:14;;;;;;;29.50;14.68;;;;;;;23.18;52.78;100181.97;5030348;28;20079;-62
2022/08/25 04:07:40;;;;;;;24.77;14.02;;;;;;;23.33;52.58;100185.19;5030938;28;20049;-62
2022/08/25 04:10:08;;;;;;;28.38;14.68;;;;;;;23.44;52.02;100182.25;5031312;28;20053;-63
2022/08/25 04:12:36;;;;;;;29.30;15.03;;;;;;;23.61;51.47;100177.00;5013396;28;20053;-60
2022/08/25 04:15:03;;;;;;;36.10;18.27;;;;;;;23.78;50.76;100179.09;5035306;28;20038;-61
2022/08/25 04:17:29;;;;;;;38.88;18.77;;;;;;;23.92;49.33;100181.75;5033525;28;20141;-61
2022/08/25 04:19:56;;;;;;;36.17;18.38;;;;;;;24.02;49.30;100176.09;5034323;28;20128;-61
2022/08/25 04:22:22;;;;;;;33.92;17.85;;;;;;;24.08;49.35;100177.56;5033656;28;20037;-63
2022/08/25 04:24:47;;;;;;;46.80;18.48;;;;;;;24.21;50.00;100175.91;5016920;28;20418;-62
2022/08/25 04:27:14;;;;;;;30.33;17.50;;;;;;;24.43;49.75;100169.69;5034807;28;20042;-62
2022/08/25 04:29:40;;;;;;;35.85;17.60;;;;;;;24.51;49.02;100173.56;5034644;28;20445;-63
2022/08/25 04:32:05;;;;;;;33.10;18.55;;;;;;;24.63;48.41;100171.84;5034397;28;20065;-61
2022/08/25 04:34:31;;;;;;;45.40;19.60;;;;;;;24.76;48.26;100172.06;5033999;28;20041;-62
2022/08/25 04:36:59;;;;;;;30.60;19.25;;;;;;;24.74;48.05;100169.69;5033280;28;20060;-62
2022/08/25 04:39:24;;;;;;;38.05;20.15;;;;;;;24.76;47.72;100167.44;5033128;28;20042;-61
2022/08/25 04:41:50;;;;;;;30.27;19.20;;;;;;;24.77;47.52;100162.81;5034599;28;20045;-62
2022/08/25 04:44:16;;;;;;;44.85;20.25;;;;;;;24.75;47.22;100162.34;5032807;28;20034;-63
2022/08/25 04:46:42;;;;;;;39.10;19.95;;;;;;;24.79;47.64;100166.00;5032994;28;20049;-64
2022/08/25 04:49:09;;;;;;;43.10;22.02;;;;;;;24.79;47.40;100157.88;5034629;28;20034;-62
2022/08/25 04:51:39;;;;;;;43.25;20.98;;;;;;;24.79;47.42;100164.09;5033842;28;20041;-62
2022/08/25 04:54:07;;;;;;;44.22;21.90;;;;;;;24.84;47.79;100165.88;5034232;28;20052;-63
2022/08/25 04:56:33;;;;;;;50.05;21.80;;;;;;;24.84;47.54;100163.97;5034136;28;20042;-63
2022/08/25 04:59:08;;;;;;;50.22;20.88;;;;;;;24.87;47.60;100157.09;5034055;28;20086;-60
2022/08/25 05:01:34;;;;;;;48.78;21.35;;;;;;;24.87;47.65;100157.91;5034302;28;20087;-62
2022/08/25 05:04:03;;;;;;;44.97;21.50;;;;;;;24.91;48.04;100161.59;5034101;28;20096;-63
2022/08/25 05:06:29;;;;;;;40.70;20.38;;;;;;;24.90;47.89;100160.00;5032257;28;20049;-65
2022/08/25 05:08:56;;;;;;;38.33;19.80;;;;;;;24.86;48.04;100158.22;5034085;28;20451;-61
2022/08/25 05:11:23;;;;;;;37.22;20.27;;;;;;;24.84;47.83;100163.97;5033733;28;20053;-62
2022/08/25 05:13:50;;;;;;;48.88;19.80;;;;;;;24.84;48.05;100157.75;5033450;28;20549;-61
2022/08/25 05:16:17;;;;;;;37.60;19.30;;;;;;;24.84;47.86;100158.53;5033299;28;20418;-62
2022/08/25 05:18:43;;;;;;;51.15;21.15;;;;;;;24.87;47.56;100151.69;5033573;28;20045;-62
2022/08/25 05:21:11;;;;;;;38.58;19.42;;;;;;;24.91;47.37;100163.50;5033527;28;20054;-61
2022/08/25 05:23:37;;;;;;;38.33;18.75;;;;;;;25.02;46.93;100156.66;5033339;28;20120;-62
2022/08/25 05:26:15;;;;;;;44.72;19.27;;;;;;;25.12;46.31;100155.59;5031147;28;20463;-62
2022/08/25 05:28:41;;;;;;;42.30;18.30;;;;;;;25.25;45.57;100157.41;5033518;28;20491;-62
2022/08/25 05:31:09;;;;;;;37.60;17.65;;;;;;;25.33;45.42;100159.31;5014012;28;20554;-61
2022/08/25 05:33:35;;;;;;;42.58;17.10;;;;;;;25.40;45.08;100158.84;5033223;28;20492;-62
2022/08/25 05:36:02;;;;;;;30.98;13.93;;;;;;;25.43;43.44;100157.41;5033562;28;20041;-62
2022/08/25 05:38:28;;;;;;;27.95;15.15;;;;;;;25.51;43.90;100154.72;5015336;28;20037;-61
2022/08/25 05:40:58;;;;;;;31.35;14.90;;;;;;;25.66;42.99;100158.06;5033474;28;20498;-61
2022/08/25 05:43:24;;;;;;;28.17;13.45;;;;;;;25.77;42.62;100156.63;5032705;28;20513;-61
2022/08/25 05:45:52;;;;;;;21.80;11.52;;;;;;;25.89;41.16;100156.03;5033014;28;20045;-62
2022/08/25 05:48:18;;;;;;;22.15;11.73;;;;;;;25.95;40.72;100152.81;5033271;28;20040;-63
2022/08/25 05:50:51;;;;;;;28.80;12.90;;;;;;;26.05;40.99;100154.38;5031777;28;20132;-64
2022/08/25 05:53:16;;;;;;;21.70;10.90;;;;;;;26.12;40.34;100151.16;5013098;28;20053;-63
2022/08/25 05:55:45;;;;;;;26.20;11.00;;;;;;;26.20;40.21;100147.66;5011926;28;20046;-62
2022/08/25 05:58:11;;;;;;;18.73;10.83;;;;;;;26.26;40.02;100151.78;5025135;28;20388;-62
2022/08/25 06:00:38;;;;;;;21.95;11.52;;;;;;;26.29;39.71;100154.63;5032866;28;20191;-62
2022/08/25 06:03:04;;;;;;;25.13;11.38;;;;;;;26.36;39.80;100143.28;5031724;28;20136;-62
2022/08/25 06:05:31;;;;;;;22.27;11.75;;;;;;;26.37;39.28;100141.38;5029916;28;20041;-63
2022/08/25 06:07:57;;;;;;;12.90;9.98;;;;;;;26.38;39.18;100148.38;5031010;28;20042;-63
2022/08/25 06:10:22;;;;;;;21.02;10.80;;;;;;;26.42;38.54;100144.72;5030179;28;20045;-64
2022/08/25 06:12:48;;;;;;;16.85;10.50;;;;;;;26.47;38.89;100149.97;5031772;28;20111;-61
2022/08/25 06:15:23;;;;;;;18.27;10.30;;;;;;;26.54;38.21;100145.97;5031433;28;20049;-61
2022/08/25 06:17:49;;;;;;;17.60;10.93;;;;;;;26.62;37.65;100153.28;5031680;28;20052;-62
2022/08/25 06:20:21;;;;;;;15.27;10.13;;;;;;;26.64;37.70;100151.06;5032600;28;20045;-62
2022/08/25 06:22:47;;;;;;;16.30;10.45;;;;;;;26.66;38.14;100152.31;5023764;28;20045;-62
2022/08/25 06:25:14;;;;;;;16.85;10.60;;;;;;;26.72;37.56;100151.00;5012588;28;20132;-61
2022/08/25 06:27:40;;;;;;;17.75;9.73;;;;;;;26.78;37.43;100148.91;5025100;28;20041;-60
2022/08/25 06:30:08;;;;;;;16.63;10.40;;;;;;;26.82;37.47;100152.56;5031206;28;20045;-63
2022/08/25 06:32:36;;;;;;;16.83;10.57;;;;;;;26.86;37.39;100150.78;5029854;28;20068;-64
2022/08/25 06:35:03;;;;;;;17.77;9.30;;;;;;;26.97;37.39;100153.91;5032391;28;20065;-63
2022/08/25 06:37:29;;;;;;;16.52;10.07;;;;;;;27.01;36.82;100151.34;5030692;28;20549;-63
2022/08/25 06:39:55;;;;;;;14.85;10.13;;;;;;;27.08;36.74;100149.69;5031767;28;20060;-62
2022/08/25 06:42:21;;;;;;;12.13;8.85;;;;;;;27.13;36.58;100140.56;5039194;28;20082;-63
2022/08/25 06:44:46;;;;;;;17.17;9.18;;;;;;;27.18;36.30;100146.63;5050060;28;20045;-62
2022/08/25 06:47:14;;;;;;;14.23;8.85;;;;;;;27.23;36.29;100147.56;5028317;28;20033;-65
2022/08/25 06:49:41;;;;;;;13.88;9.52;;;;;;;27.28;36.08;100148.16;5030686;28;20191;-62
2022/08/25 06:52:07;;;;;;;21.98;9.52;;;;;;;27.35;35.78;100134.81;5029044;28;20034;-62
2022/08/25 06:54:33;;;;;;;15.23;9.45;;;;;;;27.39;35.38;100140.41;5027300;28;20512;-62
2022/08/25 06:56:59;;;;;;;14.52;9.38;;;;;;;27.42;35.64;100130.78;5010852;28;20133;-63
2022/08/25 06:59:26;;;;;;;17.27;9.68;;;;;;;27.48;35.04;100135.69;5022649;28;20144;-63
2022/08/25 07:01:52;;;;;;;14.18;9.25;;;;;;;27.49;34.75;100126.38;5031737;28;20092;-64
2022/08/25 07:04:18;;;;;;;18.25;10.20;;;;;;;27.52;34.57;100127.66;5030405;28;20511;-63
2022/08/25 07:06:44;;;;;;;14.02;9.23;;;;;;;27.55;35.05;100126.97;5031624;28;20041;-61
2022/08/25 07:09:11;;;;;;;14.02;9.27;;;;;;;27.57;35.00;100133.69;5027061;28;20387;-62
2022/08/25 07:11:37;;;;;;;14.00;10.30;;;;;;;27.62;34.83;100132.72;5029226;28;20041;-64
2022/08/25 07:14:05;;;;;;;14.43;9.68;;;;;;;27.67;34.81;100132.47;5031611;28;20132;-64
2022/08/25 07:16:32;;;;;;;12.65;9.73;;;;;;;27.69;34.36;100130.22;5030221;28;20087;-62
2022/08/25 07:18:59;;;;;;;18.80;9.93;;;;;;;27.73;34.28;100125.69;5029727;28;20064;-63
2022/08/25 07:21:26;;;;;;;11.43;9.27;;;;;;;27.81;34.06;100126.78;5031345;28;20465;-63
2022/08/25 07:23:52;;;;;;;19.30;9.63;;;;;;;27.86;34.15;100126.59;5030245;28;20154;-61
2022/08/25 07:26:24;;;;;;;13.68;9.48;;;;;;;27.91;34.67;100126.34;5028986;28;20124;-64
2022/08/25 07:28:49;;;;;;;12.70;9.60;;;;;;;27.96;34.11;100134.31;5029504;28;20569;-61
2022/08/25 07:31:15;;;;;;;11.02;9.23;;;;;;;28.01;33.96;100125.16;5029497;28;20153;-62
2022/08/25 07:36:29;;;;;;;12.13;9.25;;;;;;;28.10;34.42;100122.34;5027760;28;20123;-65
2022/08/25 07:38:55;;;;;;;10.75;8.75;;;;;;;28.14;34.46;100125.97;5029772;28;20037;-66
2022/08/25 07:41:21;;;;;;;10.18;9.20;;;;;;;28.17;34.08;100123.34;5030568;28;20098;-65
2022/08/25 07:43:47;;;;;;;11.57;9.68;;;;;;;28.20;33.66;100124.63;5029774;28;20052;-65
2022/08/25 07:46:13;;;;;;;14.88;9.77;;;;;;;28.22;33.90;100122.34;5012239;28;20046;-65
2022/08/25 07:48:39;;;;;;;14.27;9.05;;;;;;;28.26;33.02;100117.81;5030147;28;20046;-66
2022/08/25 07:51:10;;;;;;;14.43;8.48;;;;;;;28.22;32.82;100114.97;5029664;28;20064;-65
2022/08/25 07:53:36;;;;;;;9.80;8.20;;;;;;;28.25;33.76;100114.28;5029735;28;20053;-66
2022/08/25 07:56:07;;;;;;;16.70;9.38;;;;;;;28.30;33.57;100113.28;5030988;28;20044;-65
2022/08/25 07:58:33;;;;;;;13.10;9.00;;;;;;;28.34;33.60;100108.75;5031069;28;20049;-66
2022/08/25 08:00:59;;;;;;;11.88;8.93;;;;;;;28.41;33.28;100109.00;5030313;28;20049;-65
2022/08/25 08:03:24;;;;;;;11.63;8.02;;;;;;;28.47;32.66;100106.84;5012656;28;20391;-66
2022/08/25 08:05:50;;;;;;;12.70;8.30;;;;;;;28.47;32.77;100096.75;5030639;28;20526;-65
2022/08/25 08:08:15;;;;;;;10.55;8.07;;;;;;;28.55;32.45;100105.94;5030618;28;20065;-67
2022/08/25 08:10:41;;;;;;;17.05;8.55;;;;;;;28.57;32.95;100105.63;5028887;28;20052;-64
2022/08/25 08:13:08;;;;;;;9.05;7.93;;;;;;;28.60;32.63;100102.19;5029066;28;20489;-65
2022/08/25 08:15:35;;;;;;;13.23;8.52;;;;;;;28.59;31.94;100092.41;5030269;28;20052;-65
2022/08/25 08:18:02;;;;;;;10.32;7.70;;;;;;;28.59;31.77;100092.41;5030692;28;20045;-64
2022/08/25 08:20:30;;;;;;;15.52;8.10;;;;;;;28.60;31.75;100085.84;5030989;28;20067;-64
2022/08/25 08:22:55;;;;;;;12.13;7.07;;;;;;;28.63;32.27;100083.22;5030565;28;20441;-65
2022/08/25 08:25:21;;;;;;;11.07;8.18;;;;;;;28.70;32.55;100085.38;5029559;28;20049;-64
2022/08/25 08:27:47;;;;;;;9.45;7.40;;;;;;;28.72;31.43;100085.81;5030161;28;20042;-64
2022/08/25 08:30:13;;;;;;;12.90;7.70;;;;;;;28.72;31.30;100080.38;5029543;28;20133;-64
2022/08/25 08:32:39;;;;;;;16.17;7.55;;;;;;;28.77;31.29;100088.34;5012015;28;20057;-65
2022/08/25 08:35:05;;;;;;;11.63;7.55;;;;;;;28.80;31.00;100084.13;5028730;28;20128;-64
2022/08/25 08:37:31;;;;;;;10.18;7.45;;;;;;;28.84;31.46;100085.03;5030119;28;20456;-63
2022/08/25 08:40:00;;;;;;;11.80;6.65;;;;;;;28.86;30.75;100074.56;5029780;28;20046;-64
2022/08/25 08:42:45;;;;;;;10.27;6.70;;;;;;;28.92;29.90;100076.72;5029761;28;20077;-64
2022/08/25 08:45:25;;;;;;;10.98;6.47;;;;;;;28.92;28.83;100079.44;5030436;28;20498;-64
2022/08/25 08:48:08;;;;;;;15.25;6.90;;;;;;;28.91;29.10;100072.38;4996568;28;20057;-64
2022/08/25 08:50:54;;;;;;;12.90;6.50;;;;;;;28.96;29.19;100066.69;5030196;28;20079;-64
2022/08/25 08:53:55;;;;;;;10.85;7.07;;;;;;;29.01;29.38;100073.84;5028183;28;20057;-64
2022/08/25 08:56:41;;;;;;;8.15;7.15;;;;;;;29.08;28.62;100070.56;5011377;28;20447;-63
2022/08/25 08:59:14;;;;;;;9.25;6.43;;;;;;;29.04;28.63;100065.00;5031068;28;20051;-64
2022/08/25 09:01:49;;;;;;;9.43;7.10;;;;;;;29.08;27.90;100065.88;5015285;28;20057;-65
2022/08/25 09:04:21;;;;;;;11.48;7.20;;;;;;;29.06;28.32;100067.38;5032214;28;20049;-64
2022/08/25 09:06:48;;;;;;;11.13;6.50;;;;;;;29.10;28.17;100057.38;5032704;28;20042;-64
2022/08/25 09:09:40;;;;;;;7.50;6.57;;;;;;;29.14;27.61;100061.78;5033356;28;20076;-64
2022/08/25 09:12:18;;;;;;;10.45;6.72;;;;;;;29.20;27.80;100057.66;5029482;28;20073;-64
2022/08/25 09:15:07;;;;;;;11.20;7.15;;;;;;;29.29;27.29;100054.78;5033388;28;20397;-65
2022/08/25 09:17:50;;;;;;;10.20;6.85;;;;;;;29.34;27.61;100046.34;5031026;28;20046;-64
2022/08/25 09:20:46;;;;;;;10.00;7.13;;;;;;;29.41;26.87;100048.47;5033595;28;20122;-63
2022/08/25 09:23:17;;;;;;;10.93;6.93;;;;;;;29.50;27.32;100051.84;5031754;28;20077;-63
2022/08/25 09:26:07;;;;;;;7.68;6.90;;;;;;;29.62;27.26;100043.66;5032972;28;20049;-64
2022/08/25 09:28:45;;;;;;;9.10;6.75;;;;;;;29.75;26.89;100054.50;5031500;28;20216;-64
2022/08/25 09:31:17;;;;;;;10.52;6.57;;;;;;;29.87;26.50;100049.75;5031777;28;20506;-64
2022/08/25 09:33:43;;;;;;;8.02;6.28;;;;;;;29.92;26.04;100043.25;5032238;28;20103;-64
2022/08/25 09:36:10;;;;;;;12.57;6.70;;;;;;;29.97;26.01;100045.69;5033247;28;20057;-65
2022/08/25 09:38:36;;;;;;;10.57;6.60;;;;;;;29.93;26.32;100039.34;5032278;28;20452;-65
2022/08/25 09:41:02;;;;;;;10.80;6.80;;;;;;;29.90;26.04;100045.53;5031475;28;20053;-63
2022/08/25 09:43:40;;;;;;;10.32;6.65;;;;;;;29.84;25.95;100042.25;5031200;28;20041;-64
2022/08/25 09:46:28;;;;;;;10.95;6.78;;;;;;;29.87;26.24;100038.03;5032738;28;20140;-65
2022/08/25 09:48:56;;;;;;;10.43;6.85;;;;;;;29.89;26.03;100035.75;5031315;28;20457;-64
2022/08/25 09:51:31;;;;;;;7.90;7.05;;;;;;;29.92;26.10;100032.31;5014819;28;20111;-64
2022/08/25 09:53:58;;;;;;;9.25;6.90;;;;;;;29.82;26.29;100024.63;5030223;28;20072;-64
2022/08/25 09:56:30;;;;;;;9.93;7.50;;;;;;;29.67;26.52;100028.13;5031464;28;20041;-63
2022/08/25 09:59:19;;;;;;;10.35;7.30;;;;;;;29.57;26.42;100018.50;5032178;28;20052;-65
2022/08/25 10:01:56;;;;;;;11.10;6.70;;;;;;;29.49;26.48;100025.69;5032425;28;20048;-64
2022/08/25 10:04:35;;;;;;;10.43;6.78;;;;;;;29.46;26.57;100020.13;5031034;28;20120;-65
2022/08/25 10:07:07;;;;;;;7.35;6.60;;;;;;;29.48;26.55;100017.88;5031933;28;20045;-64
2022/08/25 10:09:38;;;;;;;13.60;7.22;;;;;;;29.58;26.92;100017.34;5030665;28;20072;-64
2022/08/25 10:12:20;;;;;;;9.90;6.90;;;;;;;29.69;26.63;100014.94;5031414;28;20057;-63
2022/08/25 10:14:46;;;;;;;9.02;7.20;;;;;;;29.84;26.50;100017.66;5029830;28;20537;-63
2022/08/25 10:17:23;;;;;;;8.40;6.75;;;;;;;29.93;26.06;100006.56;5014399;28;20071;-64
2022/08/25 10:19:53;;;;;;;9.77;7.05;;;;;;;29.99;25.93;100007.09;5030230;28;20178;-64
2022/08/25 10:22:23;;;;;;;9.63;7.30;;;;;;;30.03;25.69;100006.03;5013001;28;20053;-65
2022/08/25 10:24:49;;;;;;;9.90;7.00;;;;;;;30.08;25.94;100005.75;5031314;28;20574;-64
2022/08/25 10:27:35;;;;;;;10.73;7.35;;;;;;;30.16;25.71;100000.47;5029936;28;20133;-64
2022/08/25 10:30:06;;;;;;;8.65;6.93;;;;;;;30.24;25.96;100005.00;5029903;28;20045;-65
2022/08/25 10:32:56;;;;;;;9.68;7.13;;;;;;;30.29;25.60;100005.50;5030051;28;20529;-63
2022/08/25 10:35:28;;;;;;;9.02;7.55;;;;;;;30.38;25.11;99997.09;5030734;28;20045;-64
2022/08/25 10:38:02;;;;;;;10.93;7.07;;;;;;;30.43;25.30;99998.78;5029444;28;20133;-64
2022/08/25 10:40:43;;;;;;;9.93;7.43;;;;;;;30.46;25.78;99996.13;5013487;28;20049;-64
2022/08/25 10:43:21;;;;;;;9.75;7.65;;;;;;;30.49;25.61;99992.66;5029705;28;20045;-64
2022/08/25 10:46:11;;;;;;;9.48;7.30;;;;;;;30.53;25.15;99984.53;5029675;28;20114;-65
2022/08/25 10:49:02;;;;;;;12.27;7.60;;;;;;;30.57;25.33;99982.69;5019629;28;20566;-64
2022/08/25 10:51:36;;;;;;;10.90;7.50;;;;;;;30.56;24.80;99978.34;5027746;28;20045;-63
2022/08/25 10:54:05;;;;;;;10.55;7.70;;;;;;;30.53;24.55;99974.41;5029358;28;20041;-62
2022/08/25 10:56:40;;;;;;;9.17;7.90;;;;;;;30.42;25.08;99978.06;5027933;28;20080;-63
2022/08/25 10:59:11;;;;;;;12.48;7.63;;;;;;;30.32;25.19;99976.66;5028827;28;20056;-61
2022/08/25 11:01:50;;;;;;;11.60;8.57;;;;;;;30.27;25.20;99982.41;5028799;28;20049;-62
2022/08/25 11:04:52;;;;;;;11.88;8.27;;;;;;;30.19;26.02;99975.16;5009684;28;20115;-61
2022/08/25 11:07:45;;;;;;;9.30;7.68;;;;;;;30.08;25.90;99969.44;5023520;28;20138;-59
2022/08/25 11:10:16;;;;;;;15.02;8.20;;;;;;;30.00;26.18;99960.28;5026234;28;20123;-63
2022/08/25 11:12:45;;;;;;;11.65;7.80;;;;;;;29.98;26.12;99954.38;5009607;28;20049;-62
2022/08/25 11:15:21;;;;;;;9.82;7.82;;;;;;;30.07;25.51;99957.72;5029187;28;20060;-62
2022/08/25 11:17:59;;;;;;;9.00;7.95;;;;;;;30.18;25.63;99957.16;5028030;28;20043;-62
2022/08/25 11:20:40;;;;;;;10.25;8.00;;;;;;;30.27;25.97;99944.91;5030942;28;20044;-62
2022/08/25 11:23:15;;;;;;;13.77;8.25;;;;;;;30.30;25.47;99932.47;4993968;28;20058;-61
2022/08/25 11:25:44;;;;;;;9.18;8.00;;;;;;;30.38;25.05;99933.41;5007648;28;20052;-63
2022/08/25 11:28:17;;;;;;;10.60;8.13;;;;;;;30.41;25.07;99932.69;5016376;28;20072;-61
2022/08/25 11:30:43;;;;;;;11.18;8.20;;;;;;;30.41;24.83;99935.44;5029810;28;20037;-62